createdAt,value
2018-01-11T00:01:20.819Z,96.77
2018-01-11T00:03:48.483Z,85.50
2018-01-11T00:06:16.563Z,102.10
2018-01-11T00:08:44.251Z,106.37
2018-01-11T00:11:11.985Z,101.83
2018-01-11T00:13:39.593Z,100.73
2018-01-11T00:16:07.222Z,91.53
2018-01-11T00:18:34.867Z,101.23
2018-01-11T00:21:02.466Z,107.33
2018-01-11T00:23:30.095Z,98.23
2018-01-11T00:25:57.691Z,108.73
2018-01-11T00:28:25.351Z,109.07
2018-01-11T00:30:53.079Z,108.93
2018-01-11T00:33:20.784Z,119.83
2018-01-11T00:35:48.411Z,115.90
2018-01-11T00:38:16.061Z,112.10
2018-01-11T00:40:43.723Z,129.43
2018-01-11T00:43:11.383Z,116.83
2018-01-11T00:45:39.045Z,106.37
2018-01-11T00:48:06.708Z,113.03
2018-01-11T00:50:34.577Z,131.20
2018-01-11T00:53:02.180Z,117.50
2018-01-11T00:55:30.209Z,123.93
2018-01-11T00:57:57.902Z,127.30
2018-01-11T01:00:25.615Z,129.17
2018-01-11T01:02:53.285Z,151.00
2018-01-11T01:05:20.952Z,109.70
2018-01-11T01:07:48.718Z,113.57
2018-01-11T01:10:16.371Z,123.23
2018-01-11T01:12:44.043Z,116.40
2018-01-11T01:15:11.708Z,137.87
2018-01-11T01:17:39.364Z,121.13
2018-01-11T01:20:07.113Z,120.37
2018-01-11T01:22:35.013Z,134.13
2018-01-11T01:25:02.666Z,130.23
2018-01-11T01:27:30.332Z,116.17
2018-01-11T01:29:57.970Z,126.90
2018-01-11T01:32:25.643Z,116.87
2018-01-11T01:34:53.294Z,117.83
2018-01-11T01:37:20.909Z,109.47
2018-01-11T01:39:48.560Z,108.20
2018-01-11T01:42:16.189Z,108.30
2018-01-11T01:44:43.835Z,120.53
2018-01-11T01:47:11.442Z,105.53
2018-01-11T01:49:39.110Z,103.70
2018-01-11T01:52:06.820Z,114.63
2018-01-11T01:54:35.403Z,88.20
2018-01-11T01:57:03.071Z,104.10
2018-01-11T01:59:30.933Z,86.40
2018-01-11T02:01:58.545Z,97.17
2018-01-11T02:04:26.180Z,97.67
2018-01-11T02:06:53.814Z,88.57
2018-01-11T02:09:21.481Z,81.23
2018-01-11T02:11:49.607Z,98.30
2018-01-11T02:14:17.217Z,91.17
2018-01-11T02:16:44.882Z,96.70
2018-01-11T02:19:12.468Z,88.20
2018-01-11T02:21:40.162Z,93.37
2018-01-11T02:24:08.024Z,88.03
2018-01-11T02:26:35.654Z,86.43
2018-01-11T02:29:03.288Z,83.23
2018-01-11T02:31:30.910Z,85.93
2018-01-11T02:33:58.554Z,81.10
2018-01-11T02:36:26.160Z,89.63
2018-01-11T02:38:53.764Z,84.70
2018-01-11T02:41:21.413Z,99.97
2018-01-11T02:43:49.050Z,86.73
2018-01-11T02:46:16.714Z,90.00
2018-01-11T02:48:44.372Z,96.13
2018-01-11T02:51:11.964Z,102.30
2018-01-11T02:53:39.613Z,109.87
2018-01-11T02:56:07.249Z,92.77
2018-01-11T02:58:35.222Z,90.00
2018-01-11T03:01:02.917Z,102.17
2018-01-11T03:03:30.566Z,82.37
2018-01-11T03:05:58.244Z,76.40
2018-01-11T03:08:25.852Z,77.63
2018-01-11T03:10:53.495Z,77.87
2018-01-11T03:13:21.103Z,73.23
2018-01-11T03:15:48.746Z,74.37
2018-01-11T03:18:16.404Z,73.23
2018-01-11T03:20:44.005Z,80.67
2018-01-11T03:23:11.644Z,68.50
2018-01-11T03:25:39.380Z,67.87
2018-01-11T03:28:06.972Z,64.37
2018-01-11T03:30:34.621Z,66.93
2018-01-11T03:33:02.242Z,74.20
2018-01-11T03:35:30.256Z,71.90
2018-01-11T03:37:57.855Z,64.33
2018-01-11T03:40:25.457Z,56.20
2018-01-11T03:42:53.087Z,68.10
2018-01-11T03:45:20.692Z,60.97
2018-01-11T03:47:48.334Z,71.93
2018-01-11T03:50:15.929Z,65.67
2018-01-11T03:52:43.560Z,60.00
2018-01-11T03:55:11.258Z,64.30
2018-01-11T03:57:38.878Z,70.90
2018-01-11T04:00:06.516Z,68.37
2018-01-11T04:02:34.239Z,58.80
2018-01-11T04:05:01.858Z,72.87
2018-01-11T04:07:29.530Z,65.20
2018-01-11T04:09:57.499Z,59.83
2018-01-11T04:12:25.131Z,71.37
2018-01-11T04:14:52.741Z,66.70
2018-01-11T04:17:20.362Z,70.03
2018-01-11T04:19:48.014Z,76.93
2018-01-11T04:22:15.618Z,74.07
2018-01-11T04:24:43.625Z,76.47
2018-01-11T04:27:11.271Z,70.07
2018-01-11T04:29:39.487Z,76.13
2018-01-11T04:32:07.128Z,73.57
2018-01-11T04:34:35.204Z,75.83
2018-01-11T04:37:02.918Z,62.07
2018-01-11T04:39:30.546Z,65.17
2018-01-11T04:41:58.144Z,80.20
2018-01-11T04:44:25.796Z,65.93
2018-01-11T04:46:53.448Z,63.97
2018-01-11T04:49:21.090Z,66.30
2018-01-11T04:51:48.710Z,70.30
2018-01-11T04:54:16.611Z,76.60
2018-01-11T04:56:44.235Z,76.33
2018-01-11T04:59:11.877Z,97.00
2018-01-11T05:01:39.532Z,75.90
2018-01-11T05:04:07.297Z,83.73
2018-01-11T05:06:34.950Z,78.90
2018-01-11T05:09:02.586Z,84.37
2018-01-11T05:11:30.180Z,77.33
2018-01-11T05:13:57.831Z,86.13
2018-01-11T05:16:25.439Z,83.27
2018-01-11T05:18:53.300Z,74.03
2018-01-11T05:21:20.919Z,69.20
2018-01-11T05:23:48.552Z,64.60
2018-01-11T05:26:16.290Z,75.50
2018-01-11T05:28:44.191Z,60.67
2018-01-11T05:31:12.249Z,65.30
2018-01-11T05:33:39.955Z,61.87
2018-01-11T05:36:07.562Z,73.70
2018-01-11T05:38:35.200Z,68.87
2018-01-11T05:41:02.886Z,59.97
2018-01-11T05:43:30.590Z,72.47
2018-01-11T05:45:58.219Z,64.47
2018-01-11T05:48:25.827Z,69.63
2018-01-11T05:50:53.521Z,78.80
2018-01-11T05:53:21.116Z,67.57
2018-01-11T05:55:48.771Z,74.90
2018-01-11T05:58:16.397Z,78.60
2018-01-11T06:00:44.021Z,84.93
2018-01-11T06:03:11.697Z,82.37
2018-01-11T06:05:39.343Z,77.23
2018-01-11T06:08:07.000Z,84.80
2018-01-11T06:10:34.689Z,81.23
2018-01-11T06:13:02.546Z,69.90
2018-01-11T06:15:30.637Z,88.10
2018-01-11T06:17:58.256Z,80.23
2018-01-11T06:20:25.902Z,87.03
2018-01-11T06:22:53.503Z,94.60
2018-01-11T06:25:21.111Z,86.73
2018-01-11T06:27:48.723Z,91.13
2018-01-11T06:30:16.329Z,88.67
2018-01-11T06:32:43.967Z,94.57
2018-01-11T06:35:11.609Z,100.70
2018-01-11T06:37:39.196Z,81.20
2018-01-11T06:40:07.137Z,75.67
2018-01-11T06:42:34.816Z,79.13
2018-01-11T06:45:02.781Z,81.83
2018-01-11T06:47:30.392Z,71.20
2018-01-11T06:49:58.309Z,69.23
2018-01-11T06:52:25.951Z,72.60
2018-01-11T06:54:53.940Z,67.63
2018-01-11T06:57:21.612Z,70.67
2018-01-11T06:59:49.249Z,67.40
2018-01-11T07:02:16.887Z,71.30
2018-01-11T07:04:44.511Z,73.33
2018-01-11T07:07:12.124Z,70.47
2018-01-11T07:09:39.747Z,90.90
2018-01-11T07:12:07.346Z,82.30
2018-01-11T07:14:35.269Z,78.20
2018-01-11T07:17:02.884Z,71.07
2018-01-11T07:19:30.480Z,70.27
2018-01-11T07:21:58.121Z,72.60
2018-01-11T07:24:25.725Z,72.83
2018-01-11T07:26:53.321Z,83.87
2018-01-11T07:29:20.952Z,70.23
2018-01-11T07:31:48.889Z,72.77
2018-01-11T07:34:16.685Z,82.03
2018-01-11T07:36:44.331Z,71.87
2018-01-11T07:39:11.937Z,76.90
2018-01-11T07:41:39.550Z,87.93
2018-01-11T07:44:07.200Z,73.33
2018-01-11T07:46:34.823Z,72.57
2018-01-11T07:49:02.407Z,75.57
2018-01-11T07:51:30.040Z,77.83
2018-01-11T07:53:57.954Z,86.30
2018-01-11T07:56:25.608Z,88.90
2018-01-11T07:58:53.231Z,74.13
2018-01-11T08:01:20.831Z,75.97
2018-01-11T08:03:48.518Z,83.53
2018-01-11T08:06:16.269Z,79.43
2018-01-11T08:08:44.179Z,82.70
2018-01-11T08:11:11.789Z,81.17
2018-01-11T08:13:39.795Z,89.23
2018-01-11T08:16:07.746Z,85.73
2018-01-11T08:18:35.337Z,89.63
2018-01-11T08:21:03.071Z,88.57
2018-01-11T08:23:30.654Z,82.73
2018-01-11T08:25:58.253Z,86.50
2018-01-11T08:28:25.894Z,96.80
2018-01-11T08:30:53.820Z,89.43
2018-01-11T08:33:21.442Z,83.50
2018-01-11T08:35:49.155Z,109.73
2018-01-11T08:38:17.277Z,93.93
2018-01-11T08:40:44.973Z,88.90
2018-01-11T08:43:12.577Z,79.93
2018-01-11T08:45:40.218Z,79.20
2018-01-11T08:48:07.801Z,73.60
2018-01-11T08:50:35.460Z,88.30
2018-01-11T08:53:03.099Z,82.57
2018-01-11T08:55:30.681Z,81.53
2018-01-11T08:57:58.324Z,85.80
2018-01-11T09:00:25.910Z,80.63
2018-01-11T09:02:53.562Z,90.57
2018-01-11T09:05:21.177Z,77.13
2018-01-11T09:07:48.782Z,81.03
2018-01-11T09:10:16.443Z,85.23
2018-01-11T09:12:44.100Z,75.83
2018-01-11T09:15:22.498Z,73.37
2018-01-11T09:17:50.097Z,65.10
2018-01-11T09:20:17.714Z,79.93
2018-01-11T09:22:45.408Z,73.63
2018-01-11T09:25:13.046Z,80.63
2018-01-11T09:27:41.026Z,82.97
2018-01-11T09:30:08.640Z,80.53
2018-01-11T09:32:36.262Z,78.57
2018-01-11T09:35:03.886Z,75.33
2018-01-11T09:37:31.476Z,69.73
2018-01-11T09:39:59.116Z,73.57
2018-01-11T09:42:26.710Z,64.30
2018-01-11T09:44:54.308Z,74.27
2018-01-11T09:47:21.960Z,82.03
2018-01-11T09:49:49.576Z,72.13
2018-01-11T09:52:17.586Z,78.77
2018-01-11T09:54:45.220Z,72.70
2018-01-11T09:57:12.828Z,68.67
2018-01-11T09:59:40.474Z,73.90
2018-01-11T10:02:08.142Z,66.73
2018-01-11T10:04:35.784Z,77.17
2018-01-11T10:07:03.397Z,68.03
2018-01-11T10:09:31.000Z,68.77
2018-01-11T10:11:58.619Z,75.63
2018-01-11T10:14:26.526Z,67.20
2018-01-11T10:16:54.207Z,80.67
2018-01-11T10:19:24.367Z,82.27
2018-01-11T10:21:52.324Z,68.90
2018-01-11T10:24:20.141Z,74.03
2018-01-11T10:26:48.019Z,61.77
2018-01-11T10:29:15.647Z,74.10
2018-01-11T10:31:43.264Z,67.27
2018-01-11T10:34:13.056Z,79.10
2018-01-11T10:36:40.681Z,71.00
2018-01-11T10:39:08.295Z,73.73
2018-01-11T10:41:35.962Z,69.53
2018-01-11T10:44:03.633Z,67.77
2018-01-11T10:46:31.712Z,60.80
2018-01-11T10:48:59.332Z,70.67
2018-01-11T10:51:26.941Z,79.53
2018-01-11T10:53:54.926Z,81.13
2018-01-11T10:56:22.533Z,70.00
2018-01-11T10:58:50.159Z,74.57
2018-01-11T11:01:23.238Z,67.13
2018-01-11T11:03:50.856Z,59.87
2018-01-11T11:06:18.517Z,68.53
2018-01-11T11:08:46.120Z,65.20
2018-01-11T11:11:13.761Z,68.53
2018-01-11T11:13:41.352Z,71.17
2018-01-11T11:16:08.959Z,73.23
2018-01-11T11:18:36.569Z,71.60
2018-01-11T11:21:04.170Z,62.07
2018-01-11T11:23:35.879Z,81.30
2018-01-11T11:26:03.497Z,72.37
2018-01-11T11:28:31.367Z,68.03
2018-01-11T11:30:59.026Z,81.37
2018-01-11T11:33:26.649Z,84.33
2018-01-11T11:35:54.311Z,87.43
2018-01-11T11:38:21.900Z,96.67
2018-01-11T11:40:49.527Z,97.47
2018-01-11T11:43:17.152Z,104.77
2018-01-11T11:45:44.774Z,104.50
2018-01-11T11:48:12.428Z,106.07
2018-01-11T11:50:40.032Z,114.00
2018-01-11T11:53:07.672Z,98.47
2018-01-11T11:55:36.543Z,93.37
2018-01-11T11:58:04.170Z,99.90
2018-01-11T12:00:31.836Z,104.60
2018-01-11T12:02:59.677Z,91.37
2018-01-11T12:05:27.276Z,81.73
2018-01-11T12:07:54.912Z,119.77
2018-01-11T12:10:22.509Z,94.27
2018-01-11T12:12:50.138Z,94.80
2018-01-11T12:15:17.747Z,100.03
2018-01-11T12:17:45.340Z,96.73
2018-01-11T12:20:12.994Z,100.50
2018-01-11T12:22:40.612Z,115.07
2018-01-11T12:25:08.280Z,83.93
2018-01-11T12:27:35.937Z,91.33
2018-01-11T12:30:03.560Z,76.23
2018-01-11T12:32:31.607Z,74.40
2018-01-11T12:34:59.229Z,80.00
2018-01-11T12:37:26.987Z,71.90
2018-01-11T12:39:54.628Z,79.13
2018-01-11T12:42:22.223Z,86.43
2018-01-11T12:44:49.844Z,87.87
2018-01-11T12:47:17.475Z,76.80
2018-01-11T12:49:45.136Z,80.93
2018-01-11T12:52:13.144Z,72.33
2018-01-11T12:54:40.747Z,88.43
2018-01-11T12:57:08.466Z,73.73
2018-01-11T12:59:36.452Z,77.03
2018-01-11T13:02:04.419Z,85.73
2018-01-11T13:04:32.059Z,77.53
2018-01-11T13:06:59.699Z,79.60
2018-01-11T13:09:27.327Z,75.67
2018-01-11T13:11:54.911Z,71.97
2018-01-11T13:14:22.827Z,73.83
2018-01-11T13:16:50.435Z,81.37
2018-01-11T13:19:18.057Z,76.20
2018-01-11T13:21:45.716Z,80.27
2018-01-11T13:24:13.460Z,78.40
2018-01-11T13:26:41.162Z,70.23
2018-01-11T13:29:08.807Z,66.97
2018-01-11T13:31:36.438Z,66.07
2018-01-11T13:34:04.051Z,80.87
2018-01-11T13:36:31.636Z,72.00
2018-01-11T13:38:59.570Z,64.37
2018-01-11T13:41:27.183Z,75.07
2018-01-11T13:43:54.791Z,69.33
2018-01-11T13:46:22.424Z,84.30
2018-01-11T13:48:50.316Z,75.93
2018-01-11T13:51:17.961Z,62.10
2018-01-11T13:53:45.844Z,69.13
2018-01-11T13:56:13.477Z,64.17
2018-01-11T13:58:41.132Z,64.73
2018-01-11T14:01:08.739Z,79.47
2018-01-11T14:03:36.379Z,75.97
2018-01-11T14:06:04.024Z,70.80
2018-01-11T14:08:31.616Z,67.93
2018-01-11T14:10:59.240Z,76.27
2018-01-11T14:13:27.065Z,70.47
2018-01-11T14:15:54.767Z,78.80
2018-01-11T14:18:22.409Z,76.90
2018-01-11T14:20:50.046Z,76.80
2018-01-11T14:23:17.976Z,73.80
2018-01-11T14:25:46.024Z,72.10
2018-01-11T14:28:13.708Z,68.47
2018-01-11T14:30:42.316Z,78.93
2018-01-11T14:33:09.912Z,70.20
2018-01-11T14:35:37.531Z,73.77
2018-01-11T14:38:05.630Z,75.50
2018-01-11T14:40:33.228Z,79.10
2018-01-11T14:43:01.309Z,74.07
2018-01-11T14:45:28.904Z,75.93
2018-01-11T14:47:56.527Z,64.50
2018-01-11T14:50:24.183Z,76.80
2018-01-11T14:52:51.818Z,67.77
2018-01-11T14:55:19.472Z,68.20
2018-01-11T14:57:47.166Z,69.67
2018-01-11T15:00:14.767Z,66.93
2018-01-11T15:02:45.192Z,74.43
2018-01-11T15:05:12.808Z,74.57
2018-01-11T15:07:40.751Z,75.63
2018-01-11T15:10:09.007Z,80.13
2018-01-11T15:12:41.334Z,75.50
2018-01-11T15:15:09.835Z,78.47
2018-01-11T15:17:37.816Z,79.67
2018-01-11T15:20:05.718Z,78.03
2018-01-11T15:22:35.365Z,89.53
2018-01-11T15:25:03.062Z,87.10
2018-01-11T15:27:30.722Z,83.10
2018-01-11T15:29:58.566Z,86.47
2018-01-11T15:32:26.538Z,80.97
2018-01-11T15:34:54.594Z,75.00
2018-01-11T15:37:22.302Z,78.97
2018-01-11T15:39:49.919Z,84.03
2018-01-11T15:42:17.993Z,68.60
2018-01-11T15:44:46.133Z,63.40
2018-01-11T15:47:14.773Z,73.40
2018-01-11T15:49:42.804Z,69.33
2018-01-11T15:52:13.647Z,68.90
2018-01-11T15:54:43.344Z,86.87
2018-01-11T15:57:11.230Z,97.53
2018-01-11T15:59:38.914Z,93.70
2018-01-11T16:02:06.822Z,75.10
2018-01-11T16:04:34.780Z,83.20
2018-01-11T16:07:02.415Z,90.93
2018-01-11T16:09:30.019Z,93.30
2018-01-11T16:11:57.655Z,77.03
2018-01-11T16:14:25.256Z,81.70
2018-01-11T16:16:52.995Z,81.80
2018-01-11T16:19:20.580Z,105.30
2018-01-11T16:21:48.213Z,78.70
2018-01-11T16:24:16.315Z,81.43
2018-01-11T16:26:44.018Z,83.97
2018-01-11T16:29:11.710Z,83.60
2018-01-11T16:31:39.318Z,74.00
2018-01-11T16:34:07.153Z,72.80
2018-01-11T16:36:34.805Z,63.90
2018-01-11T16:39:02.515Z,73.10
2018-01-11T16:41:30.182Z,56.43
2018-01-11T16:43:57.794Z,56.40
2018-01-11T16:46:25.713Z,58.73
2018-01-11T16:48:53.341Z,73.73
2018-01-11T16:51:21.003Z,65.67
2018-01-11T16:53:48.667Z,80.80
2018-01-11T16:56:16.329Z,66.30
2018-01-11T16:58:44.347Z,64.97
2018-01-11T17:01:11.991Z,81.67
2018-01-11T17:03:39.696Z,71.53
2018-01-11T17:06:07.398Z,63.17
2018-01-11T17:08:35.054Z,58.80
2018-01-11T17:11:02.780Z,65.40
2018-01-11T17:13:30.843Z,58.83
2018-01-11T17:15:58.717Z,69.03
2018-01-11T17:18:26.628Z,78.53
2018-01-11T17:20:54.340Z,61.80
2018-01-11T17:23:21.941Z,61.63
2018-01-11T17:25:49.659Z,53.87
2018-01-11T17:28:17.249Z,60.07
2018-01-11T17:30:45.194Z,60.83
2018-01-11T17:33:12.830Z,72.97
2018-01-11T17:35:40.453Z,67.37
2018-01-11T17:38:08.126Z,68.47
2018-01-11T17:40:36.050Z,61.77
2018-01-11T17:43:04.013Z,69.07
2018-01-11T17:45:31.695Z,61.90
2018-01-11T17:47:59.375Z,65.13
2018-01-11T17:50:27.237Z,75.53
2018-01-11T17:52:55.088Z,66.97
2018-01-11T17:55:22.736Z,67.37
2018-01-11T17:57:50.329Z,68.20
2018-01-11T18:00:18.264Z,66.13
2018-01-11T18:02:46.008Z,67.83
2018-01-11T18:05:13.612Z,82.77
2018-01-11T18:07:41.803Z,75.77
2018-01-11T18:10:09.458Z,74.57
2018-01-11T18:12:37.070Z,67.73
2018-01-11T18:15:04.737Z,71.43
2018-01-11T18:17:32.404Z,65.50
2018-01-11T18:20:00.066Z,72.10
2018-01-11T18:22:27.689Z,71.17
2018-01-11T18:24:55.631Z,66.40
2018-01-11T18:27:23.255Z,64.80
2018-01-11T18:29:50.873Z,70.30
2018-01-11T18:32:18.501Z,70.10
2018-01-11T18:34:46.096Z,62.97
2018-01-11T18:37:13.744Z,71.60
2018-01-11T18:39:41.380Z,69.70
2018-01-11T18:42:09.001Z,74.43
2018-01-11T18:44:36.640Z,73.57
2018-01-11T18:47:04.333Z,83.00
2018-01-11T18:49:31.986Z,79.70
2018-01-11T18:51:59.624Z,86.00
2018-01-11T18:54:27.210Z,94.30
2018-01-11T18:56:54.871Z,86.63
2018-01-11T18:59:22.488Z,88.50
2018-01-11T19:01:50.369Z,98.40
2018-01-11T19:04:18.027Z,96.23
2018-01-11T19:06:45.684Z,86.70
2018-01-11T19:09:13.368Z,93.73
2018-01-11T19:11:41.072Z,109.47
2018-01-11T19:14:09.518Z,107.33
2018-01-11T19:16:37.185Z,86.47
2018-01-11T19:19:04.921Z,92.63
2018-01-11T19:21:32.578Z,84.07
2018-01-11T19:24:00.481Z,87.57
2018-01-11T19:26:28.229Z,83.13
2018-01-11T19:28:56.817Z,92.10
2018-01-11T19:31:24.815Z,90.83
2018-01-11T19:33:52.831Z,86.87
2018-01-11T19:36:20.575Z,87.97
2018-01-11T19:38:48.393Z,90.27
2018-01-11T19:41:16.016Z,91.13
2018-01-11T19:43:43.904Z,92.13
2018-01-11T19:46:11.876Z,97.57
2018-01-11T19:48:39.496Z,99.47
2018-01-11T19:51:07.132Z,105.40
2018-01-11T19:53:37.347Z,94.93
2018-01-11T19:56:05.201Z,102.33
2018-01-11T19:58:33.511Z,92.90
2018-01-11T20:01:01.839Z,101.10
2018-01-11T20:03:29.816Z,98.30
2018-01-11T20:06:01.911Z,99.83
2018-01-11T20:08:30.902Z,102.43
2018-01-11T20:10:59.539Z,106.47
2018-01-11T20:13:29.695Z,103.50
2018-01-11T20:15:57.324Z,114.30
2018-01-11T20:18:25.032Z,105.37
2018-01-11T20:20:53.106Z,108.63
2018-01-11T20:23:20.811Z,103.90
2018-01-11T20:25:48.585Z,102.23
2018-01-11T20:28:16.239Z,118.40
2018-01-11T20:30:43.933Z,104.70
2018-01-11T20:33:11.565Z,120.03
2018-01-11T20:35:39.353Z,128.60
2018-01-11T20:38:06.996Z,110.90
2018-01-11T20:40:35.023Z,112.30
2018-01-11T20:43:03.668Z,104.67
2018-01-11T20:45:31.311Z,118.80
2018-01-11T20:47:59.090Z,112.27
2018-01-11T20:50:26.780Z,124.93
2018-01-11T20:52:54.523Z,104.60
2018-01-11T20:55:22.257Z,101.53
2018-01-11T20:57:49.919Z,91.33
2018-01-11T21:00:17.633Z,104.00
2018-01-11T21:02:45.257Z,102.73
2018-01-11T21:05:12.944Z,95.10
2018-01-11T21:07:43.783Z,111.97
2018-01-11T21:10:11.716Z,102.43
2018-01-11T21:12:39.422Z,98.13
2018-01-11T21:15:07.200Z,102.53
2018-01-11T21:17:36.405Z,102.20
2018-01-11T21:20:04.813Z,108.37
2018-01-11T21:22:32.543Z,106.53
2018-01-11T21:25:00.463Z,106.83
2018-01-11T21:27:28.203Z,103.03
2018-01-11T21:29:55.885Z,99.83
2018-01-11T21:32:23.944Z,111.50
2018-01-11T21:34:52.145Z,114.27
2018-01-11T21:37:19.992Z,114.37
2018-01-11T21:39:48.256Z,105.43
2018-01-11T21:42:15.918Z,104.43
2018-01-11T21:44:43.727Z,133.50
2018-01-11T21:47:11.614Z,126.70
2018-01-11T21:49:39.313Z,111.33
2018-01-11T21:52:06.923Z,127.20
2018-01-11T21:54:34.653Z,124.97
2018-01-11T21:57:02.469Z,124.77
2018-01-11T21:59:30.192Z,116.83
2018-01-11T22:01:57.841Z,138.13
2018-01-11T22:04:25.489Z,122.10
2018-01-11T22:06:55.421Z,115.50
2018-01-11T22:09:24.068Z,126.03
2018-01-11T22:11:51.746Z,137.50
2018-01-11T22:14:19.434Z,125.47
2018-01-11T22:16:47.053Z,121.83
2018-01-11T22:19:15.178Z,129.70
2018-01-11T22:21:43.493Z,129.40
2018-01-11T22:24:11.109Z,127.13
2018-01-11T22:26:38.751Z,120.37
2018-01-11T22:29:06.385Z,119.53
2018-01-11T22:31:34.384Z,123.13
2018-01-11T22:34:02.300Z,130.17
2018-01-11T22:36:30.922Z,134.40
2018-01-11T22:38:58.704Z,119.03
2018-01-11T22:41:27.224Z,119.03
2018-01-11T22:43:56.031Z,113.20
2018-01-11T22:46:26.672Z,125.63
2018-01-11T22:48:56.010Z,123.20
2018-01-11T22:51:24.275Z,115.10
2018-01-11T22:53:52.080Z,131.60
2018-01-11T22:56:20.070Z,125.70
2018-01-11T22:58:47.945Z,125.83
2018-01-11T23:01:15.591Z,119.90
2018-01-11T23:03:43.300Z,124.50
2018-01-11T23:06:11.213Z,105.83
2018-01-11T23:08:39.029Z,121.03
2018-01-11T23:11:06.757Z,124.17
2018-01-11T23:13:34.396Z,130.70
2018-01-11T23:16:02.058Z,128.33
2018-01-11T23:18:29.797Z,123.87
2018-01-11T23:20:57.403Z,112.80
2018-01-11T23:23:25.102Z,137.43
2018-01-11T23:25:52.720Z,123.67
2018-01-11T23:28:20.367Z,129.13
2018-01-11T23:30:47.979Z,128.33
2018-01-11T23:33:15.628Z,132.47
2018-01-11T23:35:43.280Z,138.03
2018-01-11T23:38:11.068Z,132.60
2018-01-11T23:40:38.725Z,135.80
2018-01-11T23:43:06.522Z,122.10
2018-01-11T23:45:34.523Z,144.27
2018-01-11T23:48:02.809Z,141.40
2018-01-11T23:50:30.462Z,152.97
2018-01-11T23:52:58.486Z,121.40
2018-01-11T23:55:26.508Z,121.40
2018-01-11T23:57:54.116Z,140.73
